createdAt,value
2019-06-20T03:02:50.188Z,0.55
2019-06-20T03:20:27.370Z,15.49
2019-06-20T03:30:16.709Z,42.94
2019-06-20T03:37:29.843Z,73.18
2019-06-20T03:43:33.831Z,182.4
2019-06-20T03:50:49.188Z,285.28
2019-06-20T03:58:19.796Z,281.1
2019-06-20T04:04:23.777Z,285.75
2019-06-20T04:10:27.517Z,339.7
2019-06-20T04:16:31.608Z,503.3
2019-06-20T04:22:35.705Z,789.22
2019-06-20T04:28:39.878Z,1359.59
2019-06-20T04:34:44.093Z,1476.94
2019-06-20T04:40:50.782Z,2227.29
2019-06-20T04:46:54.944Z,2442.22
2019-06-20T04:52:58.845Z,2432.83
2019-06-20T04:59:03.096Z,2198.3
2019-06-20T05:05:08.385Z,2310.83
2019-06-20T05:11:12.578Z,3187.78
2019-06-20T05:17:16.846Z,3958.43
2019-06-20T05:23:24.066Z,4612.76
2019-06-20T05:29:28.211Z,5431.65
2019-06-20T05:35:32.033Z,6181.39
2019-06-20T05:41:36.199Z,6178.33
2019-06-20T05:47:57.653Z,6238.75
2019-06-20T05:54:01.707Z,5867.53
2019-06-20T06:00:05.829Z,5358.37
2019-06-20T06:06:12.508Z,4885.74
2019-06-20T06:12:16.560Z,4913.93
2019-06-20T06:18:20.708Z,5564.52
2019-06-20T06:24:24.648Z,5329.48
2019-06-20T06:30:28.721Z,5386.97
2019-06-20T06:36:42.790Z,7798.79
2019-06-20T06:42:46.719Z,8720.85
2019-06-20T06:48:51.985Z,8736.79
2019-06-20T06:54:56.242Z,8807.73
2019-06-20T07:01:00.466Z,8110.12
2019-06-20T07:07:04.692Z,7345.97
2019-06-20T07:13:08.677Z,6775.49
2019-06-20T07:19:19.488Z,7945.72
2019-06-20T07:25:23.550Z,8133.8
2019-06-20T07:31:27.588Z,8101.78
2019-06-20T07:37:31.679Z,9004.81
2019-06-20T07:43:35.824Z,9456.94
2019-06-20T07:49:48.504Z,9586.44
2019-06-20T07:55:52.645Z,8513.94
2019-06-20T08:01:56.525Z,8221.1
2019-06-20T08:08:00.819Z,9221.16
2019-06-20T08:14:05.021Z,11873.25
2019-06-20T08:20:09.184Z,11536.19
2019-06-20T15:18:31.422Z,13567.07
2019-06-20T15:24:35.384Z,26224.13
2019-06-20T15:30:43.266Z,13604.11
2019-06-20T15:36:48.447Z,10974.57
2019-06-20T15:42:56.721Z,11045.85
2019-06-20T15:49:15.311Z,7599.52
2019-06-20T15:55:20.364Z,6828.52
2019-06-20T16:01:24.476Z,6858.08
2019-06-20T16:07:28.491Z,9804.13
2019-06-20T16:13:32.628Z,15297.88
2019-06-20T16:19:36.687Z,22247.59
2019-06-20T16:25:40.500Z,18138.07
2019-06-20T16:31:44.631Z,16734.92
2019-06-20T16:38:02.096Z,12938.55
2019-06-20T16:44:06.447Z,13638.48
2019-06-20T16:50:10.662Z,13649.02
2019-06-20T16:56:14.530Z,10649.78
2019-06-20T17:02:18.814Z,10220.04
2019-06-20T17:08:22.879Z,5798.71
2019-06-20T17:14:29.868Z,4704.68
2019-06-20T17:20:33.773Z,4711.62
2019-06-20T17:26:37.802Z,4103.48
2019-06-20T17:32:41.618Z,4377.88
2019-06-20T17:38:45.642Z,4208.62
2019-06-20T17:44:49.453Z,3282.99
2019-06-20T17:50:53.281Z,2959.51
2019-06-20T17:56:57.199Z,2819.24
2019-06-20T18:03:01.358Z,2468.72
2019-06-20T18:09:08.354Z,2502.04
2019-06-20T18:15:12.157Z,3129.81
2019-06-20T18:21:20.211Z,3229.3
2019-06-20T18:27:24.386Z,3259.58
2019-06-20T18:33:28.327Z,2929.23
2019-06-20T18:39:32.377Z,2532.15
2019-06-20T18:45:36.964Z,1958.28
2019-06-20T18:51:40.936Z,1774.33
2019-06-20T18:57:44.828Z,1267.19
2019-06-20T19:03:48.763Z,1116.23
2019-06-20T19:09:52.754Z,963.57
2019-06-20T19:15:56.913Z,831.45
2019-06-20T19:22:01.080Z,623.56
2019-06-20T19:28:05.045Z,506.71
2019-06-20T19:34:09.736Z,374.13
2019-06-20T19:40:13.900Z,215.74
2019-06-20T19:48:01.778Z,129.72
2019-06-20T19:54:05.929Z,94.25
2019-06-20T20:00:09.610Z,59.63
2019-06-20T20:07:22.738Z,26.43
2019-06-20T20:14:35.934Z,8.62
